Nordic Stockholm — 2DKI2 — position and weather

sailwx.info

Track history (hours):
 
Tides and Currents Weather Stations Pressure Air Temp Water Temp Dewpoint Dewpoint Depression Visibility Wind Speed Wind Dir Waves Ship Positions

Nordic Stockholm

Last reported at 2017-Feb-25 12:31 UTC. Time now 2017-Mar-01 20:02 UTC.
Position N 48°20' W 125°32'.

Length 180 m; draft 10 m.

Type: Cargo ship. MMSI: 235079725.

Date/timePositionNaut miles runAvg speedWind from/ knotsBaromVisibWave heightAir tempDewpointWater temp
2017-Feb-25 12:31N 48°20' W 125°32'1111.5
2017-Feb-25 11:33N 48°27' W 125°19'9 9.2
2017-Feb-25 10:33N 48°32' W 125°08'1111.2
2017-Feb-25 09:33N 48°32' W 124°51'1010.5
2017-Feb-25 08:33N 48°29' W 124°36'1111.0
2017-Feb-25 07:33N 48°25' W 124°21'1111.4
2017-Feb-25 06:33N 48°20' W 124°05'1212.2
2017-Feb-25 05:33N 48°17' W 123°48'1312.8
2017-Feb-25 04:31N 48°18' W 123°28'10 9.9
2017-Feb-25 03:34N 48°24' W 123°16'1413.8
2017-Feb-25 02:33N 48°37' W 123°14'1312.7
2017-Feb-25 01:34N 48°47' W 123°02'1313.5
2017-Feb-25 00:33N 48°57' W 123°15'1212.3
2017-Feb-24 23:33N 49°08' W 123°23'1211.9
2017-Feb-24 22:33N 49°19' W 123°15'7 6.6
2017-Feb-24 21:31N 49°18' W 123°04'0 0.0
2017-Feb-24 20:31N 49°18' W 123°04'0 0.0
2017-Feb-24 19:31N 49°18' W 123°04'0 0.0
2017-Feb-24 18:31N 49°18' W 123°04'0 0.0
2017-Feb-24 17:31N 49°18' W 123°04'0 0.0
2017-Feb-24 16:31N 49°18' W 123°04'0 0.0
2017-Feb-24 15:31N 49°18' W 123°04'0 0.0
2017-Feb-24 14:31N 49°18' W 123°04'0 0.0
2017-Feb-24 13:31N 49°18' W 123°04'0 0.0
2017-Feb-24 12:31N 49°18' W 123°04'3 3.0
2017-Feb-24 11:33N 49°19' W 123°08'4 4.2
2017-Feb-24 10:31N 49°20' W 123°15'0 0.1
2017-Feb-24 09:31N 49°20' W 123°15'0 0.0
2017-Feb-24 08:31N 49°20' W 123°15'0 0.0
2017-Feb-24 07:31N 49°20' W 123°15'0 0.1
2017-Feb-24 06:31N 49°20' W 123°15'0 0.0
2017-Feb-24 05:31N 49°20' W 123°15'0 0.1
2017-Feb-24 04:31N 49°20' W 123°15'0 0.1
2017-Feb-24 03:31N 49°20' W 123°15'0 0.1
2017-Feb-24 02:31N 49°20' W 123°15'0 0.0
2017-Feb-24 01:28N 49°20' W 123°15'0 0.0
2017-Feb-24 00:31N 49°20' W 123°15'0 0.1
2017-Feb-23 23:28N 49°20' W 123°15'0 0.1
2017-Feb-23 22:32N 49°20' W 123°15'0 0.0
2017-Feb-23 21:31N 49°20' W 123°15'0 0.1
2017-Feb-23 20:31N 49°20' W 123°15'0 0.0
2017-Feb-23 19:32N 49°20' W 123°15'0 0.0
2017-Feb-23 18:28N 49°20' W 123°15'0 0.0
2017-Feb-23 17:31N 49°20' W 123°15'0 0.0
2017-Feb-23 16:31N 49°20' W 123°15'0 0.0
2017-Feb-23 15:31N 49°20' W 123°15'0 0.0
2017-Feb-23 14:31N 49°20' W 123°15'0 0.0
2017-Feb-23 13:31N 49°20' W 123°15'0 0.0
2017-Feb-23 12:28N 49°20' W 123°15'0 0.0
2017-Feb-23 11:31N 49°20' W 123°15'0 0.0
2017-Feb-23 10:31N 49°20' W 123°15'0 0.1
2017-Feb-23 09:32N 49°20' W 123°15'0 0.0
2017-Feb-23 08:31N 49°20' W 123°15'0 0.1
2017-Feb-23 07:31N 49°20' W 123°15'0 0.0
2017-Feb-23 06:31N 49°20' W 123°15'0 0.0
2017-Feb-23 05:31N 49°20' W 123°15'0 0.1
2017-Feb-23 04:31N 49°20' W 123°15'0 0.1
2017-Feb-23 03:31N 49°20' W 123°15'0 0.1
2017-Feb-23 02:31N 49°20' W 123°15'0 0.2
2017-Feb-23 01:31N 49°20' W 123°14'0 0.1
2017-Feb-23 00:31N 49°20' W 123°15'0 0.0
2017-Feb-22 23:31N 49°20' W 123°15'0 0.1
2017-Feb-22 22:31N 49°20' W 123°14'0 0.2
2017-Feb-22 21:31N 49°20' W 123°15'0 0.1
2017-Feb-22 20:31N 49°20' W 123°15'0 0.0
2017-Feb-22 19:31N 49°20' W 123°15'0 0.0
2017-Feb-22 18:28N 49°20' W 123°15'0 0.0
2017-Feb-22 17:31N 49°20' W 123°15'0 0.1
2017-Feb-22 16:31N 49°20' W 123°15'0 0.0
2017-Feb-22 15:31N 49°20' W 123°15'0 0.0
2017-Feb-22 14:31N 49°20' W 123°15'0 0.0
2017-Feb-22 13:31N 49°20' W 123°15'0 0.0
2017-Feb-22 12:31N 49°20' W 123°15'0 0.0
2017-Feb-22 11:31N 49°20' W 123°15'0 0.0
2017-Feb-22 10:31N 49°20' W 123°15'0 0.1
2017-Feb-22 09:31N 49°20' W 123°15'0 0.0
2017-Feb-22 08:31N 49°20' W 123°15'0 0.0
2017-Feb-22 07:31N 49°20' W 123°15'0 0.0
2017-Feb-22 06:31N 49°20' W 123°15'0 0.1
2017-Feb-22 05:31N 49°20' W 123°15'0 0.1
2017-Feb-22 04:31N 49°20' W 123°15'0 0.1
2017-Feb-22 03:31N 49°20' W 123°15'0 0.1
2017-Feb-22 02:31N 49°20' W 123°15'0 0.0
2017-Feb-22 01:31N 49°20' W 123°15'0 0.1
2017-Feb-22 00:31N 49°20' W 123°15'0 0.1
2017-Feb-21 23:28N 49°20' W 123°14'0 0.1
2017-Feb-21 22:31N 49°20' W 123°14'0 0.0
2017-Feb-21 21:31N 49°20' W 123°14'1 0.6
2017-Feb-21 20:33N 49°20' W 123°14'6 6.4
2017-Feb-21 19:34N 49°18' W 123°04'0 0.3
2017-Feb-21 18:33N 49°18' W 123°04'0 0.0
2017-Feb-21 17:33N 49°18' W 123°04'0 0.0
2017-Feb-21 16:33N 49°18' W 123°04'0 0.0
2017-Feb-21 15:33N 49°18' W 123°04'0 0.0
2017-Feb-21 14:33N 49°18' W 123°04'0 0.0
2017-Feb-21 13:33N 49°18' W 123°04'0 0.0
2017-Feb-21 12:33N 49°18' W 123°04'0 0.0
2017-Feb-21 11:33N 49°18' W 123°04'0 0.0
2017-Feb-21 10:33N 49°18' W 123°04'0 0.0
2017-Feb-21 09:33N 49°18' W 123°04'0 0.0
2017-Feb-21 08:33N 49°18' W 123°04'0 0.0
2017-Feb-21 07:33N 49°18' W 123°04'0 0.0
2017-Feb-21 06:33N 49°18' W 123°04'0 0.0
2017-Feb-21 05:33N 49°18' W 123°04'0 0.0
2017-Feb-21 04:33N 49°18' W 123°04'0 0.0
2017-Feb-21 03:33N 49°18' W 123°04'0 0.0
2017-Feb-21 02:33N 49°18' W 123°04'0 0.0
2017-Feb-21 01:33N 49°18' W 123°04'0 0.0
2017-Feb-21 00:33N 49°18' W 123°04'0 0.0
2017-Feb-20 23:33N 49°18' W 123°04'1 1.1
2017-Feb-20 22:31N 49°18' W 123°06'0 0.1
2017-Feb-20 21:31N 49°18' W 123°06'0 0.0
2017-Feb-20 20:31N 49°18' W 123°06'0 0.0
2017-Feb-20 19:31N 49°18' W 123°06'0 0.0
2017-Feb-20 18:31N 49°18' W 123°06'0 0.0
2017-Feb-20 17:31N 49°18' W 123°06'0 0.1
2017-Feb-20 16:31N 49°18' W 123°06'0 0.2
2017-Feb-20 15:31N 49°18' W 123°06'0 0.0
2017-Feb-20 14:31N 49°18' W 123°06'0 0.0
2017-Feb-20 13:31N 49°18' W 123°06'0 0.0
2017-Feb-20 12:31N 49°18' W 123°06'0 0.0
2017-Feb-20 11:31N 49°18' W 123°06'0 0.0
2017-Feb-20 10:31N 49°18' W 123°06'0 0.0
2017-Feb-20 09:31N 49°18' W 123°06'2 2.2
2017-Feb-20 08:33N 49°19' W 123°09'1110.8
2017-Feb-20 07:34N 49°11' W 123°20'1413.7
2017-Feb-20 06:34N 48°58' W 123°11'1313.3
2017-Feb-20 05:34N 48°46' W 123°02'1212.2
2017-Feb-20 04:33N 48°37' W 123°14'1313.3
2017-Feb-20 03:33N 48°24' W 123°13'1111.0
2017-Feb-20 02:33N 48°17' W 123°26'1111.3
2017-Feb-20 01:33N 48°13' W 123°42'1211.9
2017-Feb-20 00:33N 48°15' W 123°59'3711.2
2017-Feb-19 21:13N 48°28' W 124°52'911.2
2017-Feb-19 20:27N 48°28' W 125°05'1011.6
2017-Feb-19 19:33N 48°26' W 125°20'1212.4
2017-Feb-19 18:33N 48°21' W 125°37'1312.1
2017-Feb-19 17:31N 48°15' W 125°53'  
Track history (hours):
 
Tides and Currents Weather Stations Pressure Air Temp Water Temp Dewpoint Dewpoint Depression Visibility Wind Speed Wind Dir Waves Ship Positions

Nordic Stockholm

Last reported at 2017-Feb-25 12:31 UTC. Time now 2017-Mar-01 20:02 UTC.
Position N 48°20' W 125°32'.

Length 180 m; draft 10 m.

Type: Cargo ship. MMSI: 235079725.

Date/timePositionNaut miles runAvg speedWind from/ knotsBaromVisibWave heightAir tempDewpointWater temp
2017-Feb-25 12:31N 48°20' W 125°32'1111.5
2017-Feb-25 11:33N 48°27' W 125°19'9 9.2
2017-Feb-25 10:33N 48°32' W 125°08'1111.2
2017-Feb-25 09:33N 48°32' W 124°51'1010.5
2017-Feb-25 08:33N 48°29' W 124°36'1111.0
2017-Feb-25 07:33N 48°25' W 124°21'1111.4
2017-Feb-25 06:33N 48°20' W 124°05'1212.2
2017-Feb-25 05:33N 48°17' W 123°48'1312.8
2017-Feb-25 04:31N 48°18' W 123°28'10 9.9
2017-Feb-25 03:34N 48°24' W 123°16'1413.8
2017-Feb-25 02:33N 48°37' W 123°14'1312.7
2017-Feb-25 01:34N 48°47' W 123°02'1313.5
2017-Feb-25 00:33N 48°57' W 123°15'1212.3
2017-Feb-24 23:33N 49°08' W 123°23'1211.9
2017-Feb-24 22:33N 49°19' W 123°15'7 6.6
2017-Feb-24 21:31N 49°18' W 123°04'0 0.0
2017-Feb-24 20:31N 49°18' W 123°04'0 0.0
2017-Feb-24 19:31N 49°18' W 123°04'0 0.0
2017-Feb-24 18:31N 49°18' W 123°04'0 0.0
2017-Feb-24 17:31N 49°18' W 123°04'0 0.0
2017-Feb-24 16:31N 49°18' W 123°04'0 0.0
2017-Feb-24 15:31N 49°18' W 123°04'0 0.0
2017-Feb-24 14:31N 49°18' W 123°04'0 0.0
2017-Feb-24 13:31N 49°18' W 123°04'0 0.0
2017-Feb-24 12:31N 49°18' W 123°04'3 3.0
2017-Feb-24 11:33N 49°19' W 123°08'4 4.2
2017-Feb-24 10:31N 49°20' W 123°15'0 0.1
2017-Feb-24 09:31N 49°20' W 123°15'0 0.0
2017-Feb-24 08:31N 49°20' W 123°15'0 0.0
2017-Feb-24 07:31N 49°20' W 123°15'0 0.1
2017-Feb-24 06:31N 49°20' W 123°15'0 0.0
2017-Feb-24 05:31N 49°20' W 123°15'0 0.1
2017-Feb-24 04:31N 49°20' W 123°15'0 0.1
2017-Feb-24 03:31N 49°20' W 123°15'0 0.1
2017-Feb-24 02:31N 49°20' W 123°15'0 0.0
2017-Feb-24 01:28N 49°20' W 123°15'0 0.0
2017-Feb-24 00:31N 49°20' W 123°15'0 0.1
2017-Feb-23 23:28N 49°20' W 123°15'0 0.1
2017-Feb-23 22:32N 49°20' W 123°15'0 0.0
2017-Feb-23 21:31N 49°20' W 123°15'0 0.1
2017-Feb-23 20:31N 49°20' W 123°15'0 0.0
2017-Feb-23 19:32N 49°20' W 123°15'0 0.0
2017-Feb-23 18:28N 49°20' W 123°15'0 0.0
2017-Feb-23 17:31N 49°20' W 123°15'0 0.0
2017-Feb-23 16:31N 49°20' W 123°15'0 0.0
2017-Feb-23 15:31N 49°20' W 123°15'0 0.0
2017-Feb-23 14:31N 49°20' W 123°15'0 0.0
2017-Feb-23 13:31N 49°20' W 123°15'0 0.0
2017-Feb-23 12:28N 49°20' W 123°15'0 0.0
2017-Feb-23 11:31N 49°20' W 123°15'0 0.0
2017-Feb-23 10:31N 49°20' W 123°15'0 0.1
2017-Feb-23 09:32N 49°20' W 123°15'0 0.0
2017-Feb-23 08:31N 49°20' W 123°15'0 0.1
2017-Feb-23 07:31N 49°20' W 123°15'0 0.0
2017-Feb-23 06:31N 49°20' W 123°15'0 0.0
2017-Feb-23 05:31N 49°20' W 123°15'0 0.1
2017-Feb-23 04:31N 49°20' W 123°15'0 0.1
2017-Feb-23 03:31N 49°20' W 123°15'0 0.1
2017-Feb-23 02:31N 49°20' W 123°15'0 0.2
2017-Feb-23 01:31N 49°20' W 123°14'0 0.1
2017-Feb-23 00:31N 49°20' W 123°15'0 0.0
2017-Feb-22 23:31N 49°20' W 123°15'0 0.1
2017-Feb-22 22:31N 49°20' W 123°14'0 0.2
2017-Feb-22 21:31N 49°20' W 123°15'0 0.1
2017-Feb-22 20:31N 49°20' W 123°15'0 0.0
2017-Feb-22 19:31N 49°20' W 123°15'0 0.0
2017-Feb-22 18:28N 49°20' W 123°15'0 0.0
2017-Feb-22 17:31N 49°20' W 123°15'0 0.1
2017-Feb-22 16:31N 49°20' W 123°15'0 0.0
2017-Feb-22 15:31N 49°20' W 123°15'0 0.0
2017-Feb-22 14:31N 49°20' W 123°15'0 0.0
2017-Feb-22 13:31N 49°20' W 123°15'0 0.0
2017-Feb-22 12:31N 49°20' W 123°15'0 0.0
2017-Feb-22 11:31N 49°20' W 123°15'0 0.0
2017-Feb-22 10:31N 49°20' W 123°15'0 0.1
2017-Feb-22 09:31N 49°20' W 123°15'0 0.0
2017-Feb-22 08:31N 49°20' W 123°15'0 0.0
2017-Feb-22 07:31N 49°20' W 123°15'0 0.0
2017-Feb-22 06:31N 49°20' W 123°15'0 0.1
2017-Feb-22 05:31N 49°20' W 123°15'0 0.1
2017-Feb-22 04:31N 49°20' W 123°15'0 0.1
2017-Feb-22 03:31N 49°20' W 123°15'0 0.1
2017-Feb-22 02:31N 49°20' W 123°15'0 0.0
2017-Feb-22 01:31N 49°20' W 123°15'0 0.1
2017-Feb-22 00:31N 49°20' W 123°15'0 0.1
2017-Feb-21 23:28N 49°20' W 123°14'0 0.1
2017-Feb-21 22:31N 49°20' W 123°14'0 0.0
2017-Feb-21 21:31N 49°20' W 123°14'1 0.6
2017-Feb-21 20:33N 49°20' W 123°14'6 6.4
2017-Feb-21 19:34N 49°18' W 123°04'0 0.3
2017-Feb-21 18:33N 49°18' W 123°04'0 0.0
2017-Feb-21 17:33N 49°18' W 123°04'0 0.0
2017-Feb-21 16:33N 49°18' W 123°04'0 0.0
2017-Feb-21 15:33N 49°18' W 123°04'0 0.0
2017-Feb-21 14:33N 49°18' W 123°04'0 0.0
2017-Feb-21 13:33N 49°18' W 123°04'0 0.0
2017-Feb-21 12:33N 49°18' W 123°04'0 0.0
2017-Feb-21 11:33N 49°18' W 123°04'0 0.0
2017-Feb-21 10:33N 49°18' W 123°04'0 0.0
2017-Feb-21 09:33N 49°18' W 123°04'0 0.0
2017-Feb-21 08:33N 49°18' W 123°04'0 0.0
2017-Feb-21 07:33N 49°18' W 123°04'0 0.0
2017-Feb-21 06:33N 49°18' W 123°04'0 0.0
2017-Feb-21 05:33N 49°18' W 123°04'0 0.0
2017-Feb-21 04:33N 49°18' W 123°04'0 0.0
2017-Feb-21 03:33N 49°18' W 123°04'0 0.0
2017-Feb-21 02:33N 49°18' W 123°04'0 0.0
2017-Feb-21 01:33N 49°18' W 123°04'0 0.0
2017-Feb-21 00:33N 49°18' W 123°04'0 0.0
2017-Feb-20 23:33N 49°18' W 123°04'1 1.1
2017-Feb-20 22:31N 49°18' W 123°06'0 0.1
2017-Feb-20 21:31N 49°18' W 123°06'0 0.0
2017-Feb-20 20:31N 49°18' W 123°06'0 0.0
2017-Feb-20 19:31N 49°18' W 123°06'0 0.0
2017-Feb-20 18:31N 49°18' W 123°06'0 0.0
2017-Feb-20 17:31N 49°18' W 123°06'0 0.1
2017-Feb-20 16:31N 49°18' W 123°06'0 0.2
2017-Feb-20 15:31N 49°18' W 123°06'0 0.0
2017-Feb-20 14:31N 49°18' W 123°06'0 0.0
2017-Feb-20 13:31N 49°18' W 123°06'0 0.0
2017-Feb-20 12:31N 49°18' W 123°06'0 0.0
2017-Feb-20 11:31N 49°18' W 123°06'0 0.0
2017-Feb-20 10:31N 49°18' W 123°06'0 0.0
2017-Feb-20 09:31N 49°18' W 123°06'2 2.2
2017-Feb-20 08:33N 49°19' W 123°09'1110.8
2017-Feb-20 07:34N 49°11' W 123°20'1413.7
2017-Feb-20 06:34N 48°58' W 123°11'1313.3
2017-Feb-20 05:34N 48°46' W 123°02'1212.2
2017-Feb-20 04:33N 48°37' W 123°14'1313.3
2017-Feb-20 03:33N 48°24' W 123°13'1111.0
2017-Feb-20 02:33N 48°17' W 123°26'1111.3
2017-Feb-20 01:33N 48°13' W 123°42'1211.9
2017-Feb-20 00:33N 48°15' W 123°59'3711.2
2017-Feb-19 21:13N 48°28' W 124°52'911.2
2017-Feb-19 20:27N 48°28' W 125°05'1011.6
2017-Feb-19 19:33N 48°26' W 125°20'1212.4
2017-Feb-19 18:33N 48°21' W 125°37'1312.1
2017-Feb-19 17:31N 48°15' W 125°53'  

Dump ship's entire track history